createdAt,value
2019-03-01T00:01:25.919Z,10.49
2019-03-01T00:04:12.107Z,10.48
2019-03-01T00:07:09.030Z,10.46
2019-03-01T00:10:22.173Z,10.46
2019-03-01T00:13:27.879Z,10.46
2019-03-01T00:16:13.807Z,10.42
2019-03-01T00:18:57.451Z,10.36
2019-03-01T00:22:04.214Z,10.34
2019-03-01T00:25:12.387Z,10.35
2019-03-01T00:28:07.147Z,10.36
2019-03-01T00:31:24.329Z,10.32
2019-03-01T00:34:16.092Z,10.32
2019-03-01T00:37:29.332Z,10.35
2019-03-01T00:40:30.978Z,10.38
2019-03-01T00:43:31.006Z,10.35
2019-03-01T00:46:01.028Z,10.36
2019-03-01T00:48:31.438Z,10.36
2019-03-01T00:51:01.443Z,10.35
2019-03-01T00:53:31.491Z,10.33
2019-03-01T00:56:01.477Z,10.29
2019-03-01T00:58:31.506Z,10.31
2019-03-01T01:01:01.598Z,10.28
2019-03-01T01:03:31.636Z,10.26
2019-03-01T01:06:01.606Z,10.27
2019-03-01T01:08:31.498Z,10.29
2019-03-01T01:11:01.899Z,10.30
2019-03-01T01:13:32.040Z,10.31
2019-03-01T01:16:02.027Z,10.31
2019-03-01T01:18:32.455Z,10.31
2019-03-01T01:21:02.560Z,10.32
2019-03-01T01:23:32.580Z,10.36
2019-03-01T01:26:02.990Z,10.37
2019-03-01T01:28:33.991Z,10.37
2019-03-01T01:31:03.952Z,10.38
2019-03-01T01:33:33.900Z,10.36
2019-03-01T01:36:03.875Z,10.38
2019-03-01T01:38:33.959Z,10.38
2019-03-01T01:41:03.954Z,10.39
2019-03-01T01:43:33.967Z,10.39
2019-03-01T01:46:03.969Z,10.40
2019-03-01T01:48:35.084Z,10.44
2019-03-01T01:51:05.114Z,10.46
2019-03-01T01:53:35.259Z,10.47
2019-03-01T01:56:05.642Z,10.48
2019-03-01T01:58:35.792Z,10.49
2019-03-01T02:01:05.782Z,10.51
2019-03-01T02:03:36.143Z,10.50
2019-03-01T02:06:06.255Z,10.49
2019-03-01T02:08:37.499Z,10.48
2019-03-01T02:11:07.798Z,10.50
2019-03-01T02:13:37.852Z,10.45
2019-03-01T02:16:08.134Z,10.46
2019-03-01T02:18:38.166Z,10.46
2019-03-01T02:21:08.496Z,10.43
2019-03-01T02:23:40.113Z,10.40
2019-03-01T02:26:11.272Z,10.37
2019-03-01T02:28:41.851Z,10.35
2019-03-01T02:31:12.034Z,10.36
2019-03-01T02:33:41.964Z,10.36
2019-03-01T02:36:11.979Z,10.37
2019-03-01T02:38:42.008Z,10.39
2019-03-01T02:41:12.033Z,10.40
2019-03-01T02:43:42.115Z,10.40
2019-03-01T02:46:12.414Z,10.42
2019-03-01T02:48:42.415Z,10.42
2019-03-01T02:51:12.349Z,10.43
2019-03-01T02:53:42.384Z,10.41
2019-03-01T02:56:12.811Z,10.42
2019-03-01T02:58:43.143Z,10.43
2019-03-01T03:01:13.494Z,10.42
2019-03-01T03:03:43.427Z,10.42
2019-03-01T03:06:22.068Z,10.44
2019-03-01T03:08:52.034Z,10.44
2019-03-01T03:11:22.026Z,10.42
2019-03-01T03:13:52.288Z,10.42
2019-03-01T03:16:22.339Z,10.44
2019-03-01T03:18:53.166Z,10.46
2019-03-01T03:21:23.164Z,10.39
2019-03-01T03:23:53.435Z,10.47
2019-03-01T03:26:23.431Z,10.48
2019-03-01T03:28:53.426Z,10.48
2019-03-01T03:31:23.471Z,10.48
2019-03-01T03:33:53.741Z,10.48
2019-03-01T03:36:24.874Z,10.47
2019-03-01T03:38:54.846Z,10.48
2019-03-01T03:41:24.895Z,10.48
2019-03-01T03:43:55.281Z,10.49
2019-03-01T03:46:25.538Z,10.48
2019-03-01T03:48:55.498Z,10.48
2019-03-01T03:51:26.205Z,10.47
2019-03-01T03:53:56.179Z,10.45
2019-03-01T03:56:26.160Z,10.43
2019-03-01T03:58:56.144Z,10.40
2019-03-01T04:01:26.117Z,10.35
2019-03-01T04:03:56.158Z,10.33
2019-03-01T04:06:26.267Z,10.30
2019-03-01T04:08:56.244Z,10.25
2019-03-01T04:11:26.307Z,10.23
2019-03-01T04:13:56.267Z,10.21
2019-03-01T04:16:26.346Z,10.15
2019-03-01T04:18:56.360Z,10.09
2019-03-01T04:21:26.410Z,10.03
2019-03-01T04:23:56.348Z,10.05
2019-03-01T04:26:26.615Z,10.05
2019-03-01T04:28:56.614Z,10.05
2019-03-01T04:31:26.853Z,10.07
2019-03-01T04:33:57.186Z,10.08
2019-03-01T04:36:27.503Z,10.08
2019-03-01T04:38:57.480Z,10.10
2019-03-01T04:41:27.453Z,10.12
2019-03-01T04:43:57.770Z,10.14
2019-03-01T04:46:27.761Z,10.14
2019-03-01T04:48:57.808Z,10.16
2019-03-01T04:51:27.772Z,10.16
2019-03-01T04:53:58.159Z,10.14
2019-03-01T04:56:28.657Z,10.14
2019-03-01T04:58:59.013Z,10.16
2019-03-01T05:01:29.692Z,10.18
2019-03-01T05:03:59.699Z,10.19
2019-03-01T05:06:30.766Z,10.16
2019-03-01T05:09:01.813Z,10.16
2019-03-01T05:11:34.111Z,10.11
2019-03-01T05:14:04.332Z,10.09
2019-03-01T05:16:34.563Z,10.08
2019-03-01T05:19:04.620Z,10.02
2019-03-01T05:21:34.999Z,10.00
2019-03-01T05:24:05.034Z,10.05
2019-03-01T05:26:35.015Z,10.08
2019-03-01T05:29:04.994Z,10.12
2019-03-01T05:31:34.975Z,10.15
2019-03-01T05:34:04.954Z,10.18
2019-03-01T05:36:35.002Z,10.20
2019-03-01T05:39:06.633Z,10.21
2019-03-01T05:41:37.986Z,10.21
2019-03-01T05:44:08.908Z,10.22
2019-03-01T05:46:39.871Z,10.24
2019-03-01T05:49:10.186Z,10.25
2019-03-01T05:51:40.119Z,10.25
2019-03-01T05:54:10.126Z,10.26
2019-03-01T05:56:40.077Z,10.26
2019-03-01T05:59:21.864Z,10.25
2019-03-01T06:02:11.128Z,10.21
2019-03-01T06:04:48.143Z,10.19
2019-03-01T06:07:31.632Z,10.19
2019-03-01T06:10:32.308Z,10.18
2019-03-01T06:13:28.617Z,10.17
2019-03-01T06:16:48.406Z,10.16
2019-03-01T06:19:40.404Z,10.12
2019-03-01T06:22:48.228Z,10.08
2019-03-01T06:26:05.254Z,10.01
2019-03-01T06:28:50.630Z,9.98
2019-03-01T06:32:17.882Z,9.95
2019-03-01T06:35:17.073Z,9.97
2019-03-01T06:38:43.275Z,9.97
2019-03-01T06:41:31.159Z,9.98
2019-03-01T06:44:36.790Z,10.03
2019-03-01T06:47:31.796Z,10.05
2019-03-01T06:50:07.966Z,10.01
2019-03-01T06:52:38.437Z,10.02
2019-03-01T06:55:13.867Z,10.00
2019-03-01T06:57:43.911Z,9.97
2019-03-01T07:00:13.862Z,9.96
2019-03-01T07:02:46.139Z,9.95
2019-03-01T07:05:16.126Z,9.92
2019-03-01T07:07:46.137Z,9.91
2019-03-01T07:10:16.103Z,9.88
2019-03-01T07:12:46.064Z,9.87
2019-03-01T07:15:15.936Z,9.84
2019-03-01T07:17:45.892Z,9.84
2019-03-01T07:20:15.902Z,9.86
2019-03-01T07:22:45.938Z,9.87
2019-03-01T07:25:15.909Z,9.86
2019-03-01T07:27:45.874Z,9.86
2019-03-01T07:30:15.769Z,9.81
2019-03-01T07:32:45.642Z,9.83
2019-03-01T07:35:15.671Z,9.78
2019-03-01T07:37:45.555Z,9.76
2019-03-01T07:40:15.531Z,9.72
2019-03-01T07:42:45.474Z,9.74
2019-03-01T07:45:15.886Z,9.71
2019-03-01T07:47:46.632Z,9.72
2019-03-01T07:50:16.662Z,9.71
2019-03-01T07:52:46.689Z,9.70
2019-03-01T07:55:16.655Z,9.70
2019-03-01T07:57:49.677Z,9.71
2019-03-01T08:00:18.295Z,9.71
2019-03-01T08:02:48.260Z,9.69
2019-03-01T08:05:18.220Z,9.69
2019-03-01T08:07:55.778Z,9.69
2019-03-01T08:10:22.525Z,9.67
2019-03-01T08:12:51.805Z,9.66
2019-03-01T08:15:22.115Z,9.65
2019-03-01T08:17:52.450Z,9.64
2019-03-01T08:20:22.795Z,9.64
2019-03-01T08:22:53.164Z,9.66
2019-03-01T08:25:24.636Z,9.65
2019-03-01T08:27:54.701Z,9.58
2019-03-01T08:30:24.692Z,9.57
2019-03-01T08:32:54.650Z,9.57
2019-03-01T08:35:25.295Z,9.56
2019-03-01T08:37:56.825Z,9.55
2019-03-01T08:40:26.974Z,9.52
2019-03-01T08:42:57.428Z,9.49
2019-03-01T08:45:29.734Z,9.51
2019-03-01T08:47:59.931Z,9.48
2019-03-01T08:50:29.949Z,9.46
2019-03-01T08:52:59.935Z,9.47
2019-03-01T08:55:30.034Z,9.49
2019-03-01T08:58:03.410Z,9.46
2019-03-01T09:00:32.640Z,9.46
2019-03-01T09:03:09.909Z,9.49
2019-03-01T09:05:39.947Z,9.52
2019-03-01T09:08:09.957Z,9.54
2019-03-01T09:10:39.963Z,9.57
2019-03-01T09:13:10.601Z,9.59
2019-03-01T09:15:40.492Z,9.51
2019-03-01T09:18:14.525Z,9.50
2019-03-01T09:20:44.364Z,9.48
2019-03-01T09:23:23.552Z,9.43
2019-03-01T09:25:47.001Z,9.38
2019-03-01T09:28:18.273Z,9.33
2019-03-01T09:30:48.355Z,9.27
2019-03-01T09:33:21.577Z,9.25
2019-03-01T09:36:21.269Z,9.20
2019-03-01T09:38:50.150Z,9.20
2019-03-01T09:41:20.149Z,9.13
2019-03-01T09:43:50.110Z,9.12
2019-03-01T09:46:20.849Z,9.06
2019-03-01T09:48:51.734Z,9.00
2019-03-01T09:51:21.790Z,8.92
2019-03-01T09:53:51.828Z,8.92
2019-03-01T09:56:24.265Z,8.91
2019-03-01T09:58:53.707Z,8.94
2019-03-01T10:01:23.748Z,8.93
2019-03-01T10:03:53.768Z,8.91
2019-03-01T10:06:23.781Z,8.94
2019-03-01T10:08:55.108Z,8.96
2019-03-01T10:11:25.463Z,8.95
2019-03-01T10:13:55.441Z,8.95
2019-03-01T10:16:25.448Z,8.92
2019-03-01T10:18:59.931Z,8.84
2019-03-01T10:21:30.366Z,8.78
2019-03-01T10:24:00.354Z,8.76
2019-03-01T10:26:30.329Z,8.69
2019-03-01T10:29:00.614Z,8.67
2019-03-01T10:31:30.581Z,8.67
2019-03-01T10:34:00.497Z,8.70
2019-03-01T10:36:30.409Z,8.72
2019-03-01T10:39:00.662Z,8.70
2019-03-01T10:41:32.192Z,8.68
2019-03-01T10:44:02.083Z,8.66
2019-03-01T10:46:32.121Z,8.68
2019-03-01T10:49:03.472Z,8.66
2019-03-01T10:51:33.363Z,8.69
2019-03-01T10:54:03.630Z,8.70
2019-03-01T10:56:33.592Z,8.72
2019-03-01T10:59:04.675Z,8.71
2019-03-01T11:01:34.986Z,8.71
2019-03-01T11:04:04.992Z,8.73
2019-03-01T11:06:35.030Z,8.73
2019-03-01T11:09:06.935Z,8.70
2019-03-01T11:11:37.508Z,8.66
2019-03-01T11:14:07.742Z,8.66
2019-03-01T11:16:37.706Z,8.69
2019-03-01T11:19:07.682Z,8.71
2019-03-01T11:21:37.626Z,8.66
2019-03-01T11:24:07.595Z,8.63
2019-03-01T11:26:37.563Z,8.62
2019-03-01T11:29:07.537Z,8.61
2019-03-01T11:31:38.898Z,8.59
2019-03-01T11:34:09.121Z,8.59
2019-03-01T11:36:39.076Z,8.56
2019-03-01T11:39:09.507Z,8.57
2019-03-01T11:41:39.888Z,8.55
2019-03-01T11:44:09.862Z,8.55
2019-03-01T11:46:39.870Z,8.52
2019-03-01T11:49:09.812Z,8.54
2019-03-01T11:51:39.795Z,8.57
2019-03-01T11:54:09.871Z,8.60
2019-03-01T11:56:41.323Z,8.63
2019-03-01T11:59:11.542Z,8.65
2019-03-01T12:01:41.817Z,8.70
2019-03-01T12:04:11.691Z,8.68
2019-03-01T12:06:42.546Z,8.73
2019-03-01T12:09:12.524Z,8.76
2019-03-01T12:11:42.551Z,8.78
2019-03-01T12:14:12.579Z,8.78
2019-03-01T12:16:42.596Z,8.79
2019-03-01T12:19:12.532Z,8.81
2019-03-01T12:21:42.541Z,8.85
2019-03-01T12:24:12.491Z,8.88
2019-03-01T12:26:42.850Z,8.90
2019-03-01T12:29:12.806Z,8.88
2019-03-01T12:31:42.774Z,8.87
2019-03-01T12:34:12.726Z,8.86
2019-03-01T12:36:42.524Z,8.87
2019-03-01T12:39:12.508Z,8.85
2019-03-01T12:41:42.484Z,8.82
2019-03-01T12:44:12.450Z,8.84
2019-03-01T12:46:42.751Z,8.81
2019-03-01T12:49:12.644Z,8.78
2019-03-01T12:51:42.618Z,8.79
2019-03-01T12:54:12.638Z,8.77
2019-03-01T12:56:42.508Z,8.75
2019-03-01T12:59:12.418Z,8.73
2019-03-01T13:01:42.324Z,8.73
2019-03-01T13:04:12.284Z,8.76
2019-03-01T13:06:42.229Z,8.76
2019-03-01T13:09:15.228Z,8.72
2019-03-01T13:11:48.591Z,8.70
2019-03-01T13:14:17.639Z,8.75
2019-03-01T13:16:48.228Z,8.76
2019-03-01T13:19:18.234Z,8.79
2019-03-01T13:21:49.191Z,8.84
2019-03-01T13:24:19.606Z,8.86
2019-03-01T13:26:49.564Z,8.89
2019-03-01T13:29:22.259Z,8.91
2019-03-01T13:31:51.214Z,8.89
2019-03-01T13:34:21.118Z,8.91
2019-03-01T13:36:51.091Z,8.93
2019-03-01T13:39:21.004Z,8.91
2019-03-01T13:41:50.987Z,8.88
2019-03-01T13:44:20.976Z,8.85
2019-03-01T13:46:50.892Z,8.78
2019-03-01T13:49:20.812Z,8.77
2019-03-01T13:51:53.062Z,8.71
2019-03-01T13:54:22.509Z,8.72
2019-03-01T13:56:52.461Z,8.76
2019-03-01T13:59:22.519Z,8.80
2019-03-01T14:01:52.419Z,8.85
2019-03-01T14:04:22.657Z,8.87
2019-03-01T14:06:52.618Z,8.80
2019-03-01T14:09:23.415Z,8.81
2019-03-01T14:11:55.907Z,8.77
2019-03-01T14:14:27.105Z,8.78
2019-03-01T14:16:57.900Z,8.73
2019-03-01T14:19:27.885Z,8.64
2019-03-01T14:21:58.482Z,8.60
2019-03-01T14:24:29.517Z,8.60
2019-03-01T14:27:00.105Z,8.57
2019-03-01T14:29:30.079Z,8.57
2019-03-01T14:32:00.044Z,8.59
2019-03-01T14:34:29.917Z,8.60
2019-03-01T14:36:59.880Z,8.54
2019-03-01T14:39:29.869Z,8.49
2019-03-01T14:42:00.134Z,8.38
2019-03-01T14:44:33.939Z,8.31
2019-03-01T14:47:02.725Z,8.25
2019-03-01T14:49:33.082Z,8.23
2019-03-01T14:52:03.192Z,8.21
2019-03-01T14:54:33.538Z,8.15
2019-03-01T14:57:19.710Z,8.13
2019-03-01T14:59:55.201Z,8.15
2019-03-01T15:02:31.550Z,8.17
2019-03-01T15:05:05.531Z,8.19
2019-03-01T15:07:33.493Z,8.19
2019-03-01T15:10:03.475Z,8.23
2019-03-01T15:12:34.059Z,8.29
2019-03-01T15:15:04.124Z,8.27
2019-03-01T15:17:36.392Z,8.18
2019-03-01T15:20:08.715Z,8.17
2019-03-01T15:22:39.897Z,8.13
2019-03-01T15:25:11.985Z,8.06
2019-03-01T15:27:42.009Z,8.07
2019-03-01T15:30:13.657Z,8.06
2019-03-01T15:32:43.626Z,8.10
2019-03-01T15:35:13.741Z,8.06
2019-03-01T15:37:43.707Z,8.07
2019-03-01T15:40:13.874Z,8.05
2019-03-01T15:42:43.840Z,7.97
2019-03-01T15:45:13.854Z,7.96
2019-03-01T15:47:44.377Z,7.98
2019-03-01T15:50:14.579Z,8.01
2019-03-01T15:52:45.585Z,8.05
2019-03-01T15:55:16.204Z,8.08
2019-03-01T15:57:46.223Z,8.07
2019-03-01T16:00:16.664Z,8.05
2019-03-01T16:02:46.652Z,8.03
2019-03-01T16:05:16.620Z,7.97
2019-03-01T16:07:46.571Z,7.95
2019-03-01T16:10:16.677Z,7.94
2019-03-01T16:12:46.931Z,7.91
2019-03-01T16:15:17.874Z,7.91
2019-03-01T16:17:48.212Z,7.91
2019-03-01T16:20:18.253Z,7.90
2019-03-01T16:22:51.081Z,7.92
2019-03-01T16:25:21.430Z,7.89
2019-03-01T16:27:54.360Z,7.86
2019-03-01T16:30:23.335Z,7.85
2019-03-01T16:32:53.297Z,7.86
2019-03-01T16:35:23.289Z,7.84
2019-03-01T16:37:53.556Z,7.86
2019-03-01T16:40:23.507Z,7.86
2019-03-01T16:42:54.597Z,7.86
2019-03-01T16:45:24.765Z,7.84
2019-03-01T16:47:54.736Z,7.83
2019-03-01T16:50:24.896Z,7.87
2019-03-01T16:52:55.155Z,7.88
2019-03-01T16:55:27.909Z,7.89
2019-03-01T16:58:06.109Z,7.88
2019-03-01T17:00:29.420Z,7.88
2019-03-01T17:03:00.096Z,7.92
2019-03-01T17:05:30.078Z,7.94
2019-03-01T17:08:05.646Z,7.92
2019-03-01T17:10:31.713Z,7.95
2019-03-01T17:13:01.767Z,7.93
2019-03-01T17:15:31.792Z,7.93
2019-03-01T17:18:01.755Z,7.98
2019-03-01T17:20:37.480Z,8.04
2019-03-01T17:25:47.611Z,8.05
2019-03-01T17:28:23.606Z,8.06
2019-03-01T17:30:50.557Z,8.08
2019-03-01T17:33:21.743Z,8.08
2019-03-01T17:35:51.848Z,8.08
2019-03-01T17:38:21.730Z,8.08
2019-03-01T17:40:51.695Z,8.12
2019-03-01T17:43:22.035Z,8.11
2019-03-01T17:45:54.361Z,8.08
2019-03-01T17:48:24.045Z,8.04
2019-03-01T17:50:54.057Z,8.03
2019-03-01T17:53:24.592Z,8.03
2019-03-01T17:55:54.569Z,8.03
2019-03-01T17:58:24.564Z,8.01
2019-03-01T18:00:54.824Z,7.97
2019-03-01T18:03:24.897Z,7.95
2019-03-01T18:05:54.916Z,7.93
2019-03-01T18:08:25.134Z,7.91
2019-03-01T18:10:55.347Z,7.89
2019-03-01T18:13:25.820Z,7.88
2019-03-01T18:15:55.754Z,7.87
2019-03-01T18:18:26.199Z,7.86
2019-03-01T18:20:56.476Z,7.82
2019-03-01T18:23:26.371Z,7.83
2019-03-01T18:25:56.390Z,7.81
2019-03-01T18:28:29.177Z,7.77
2019-03-01T18:31:00.307Z,7.77
2019-03-01T18:33:30.425Z,7.78
2019-03-01T18:36:00.767Z,7.76
2019-03-01T18:38:31.371Z,7.81
2019-03-01T18:41:02.286Z,7.83
2019-03-01T18:43:32.316Z,7.83
2019-03-01T18:46:02.342Z,7.84
2019-03-01T18:48:33.614Z,7.84
2019-03-01T18:51:06.911Z,7.83
2019-03-01T18:53:35.338Z,7.83
2019-03-01T18:56:06.522Z,7.82
2019-03-01T18:58:39.088Z,7.82
2019-03-01T19:01:11.697Z,7.86
2019-03-01T19:03:41.737Z,7.89
2019-03-01T19:06:12.836Z,7.90
2019-03-01T19:08:43.377Z,7.93
2019-03-01T19:11:13.357Z,7.90
2019-03-01T19:13:43.350Z,7.90
2019-03-01T19:16:14.531Z,7.86
2019-03-01T19:18:44.582Z,7.82
2019-03-01T19:21:17.415Z,7.79
2019-03-01T19:23:46.683Z,7.80
2019-03-01T19:26:16.975Z,7.78
2019-03-01T19:28:47.695Z,7.72
2019-03-01T19:31:18.193Z,7.66
2019-03-01T19:33:48.642Z,7.67
2019-03-01T19:36:18.666Z,7.64
2019-03-01T19:38:49.130Z,7.68
2019-03-01T19:41:20.038Z,7.72
2019-03-01T19:43:57.354Z,7.72
2019-03-01T19:46:23.159Z,7.72
2019-03-01T19:48:53.368Z,7.74
2019-03-01T19:51:23.584Z,7.75
2019-03-01T19:53:54.031Z,7.75
2019-03-01T19:56:25.878Z,7.71
2019-03-01T19:58:56.247Z,7.68
2019-03-01T20:01:26.867Z,7.64
2019-03-01T20:03:57.181Z,7.59
2019-03-01T20:06:27.745Z,7.55
2019-03-01T20:08:57.817Z,7.53
2019-03-01T20:11:28.113Z,7.56
2019-03-01T20:13:58.266Z,7.57
2019-03-01T20:16:28.560Z,7.58
2019-03-01T20:18:58.952Z,7.61
2019-03-01T20:21:29.276Z,7.60
2019-03-01T20:24:01.759Z,7.61
2019-03-01T20:26:31.751Z,7.58
2019-03-01T20:29:02.262Z,7.57
2019-03-01T20:31:32.243Z,7.55
2019-03-01T20:34:02.889Z,7.58
2019-03-01T20:36:33.083Z,7.61
2019-03-01T20:39:03.244Z,7.60
2019-03-01T20:41:35.917Z,7.59
2019-03-01T20:44:06.615Z,7.60
2019-03-01T20:46:40.027Z,7.64
2019-03-01T20:49:08.777Z,7.63
2019-03-01T20:51:39.295Z,7.64
2019-03-01T20:54:09.720Z,7.65
2019-03-01T20:56:39.817Z,7.65
2019-03-01T20:59:12.651Z,7.63
2019-03-01T21:01:41.941Z,7.60
2019-03-01T21:04:12.186Z,7.61
2019-03-01T21:06:42.188Z,7.60
2019-03-01T21:09:12.174Z,7.61
2019-03-01T21:11:42.867Z,7.59
2019-03-01T21:14:13.542Z,7.54
2019-03-01T21:16:44.888Z,7.54
2019-03-01T21:19:15.822Z,7.51
2019-03-01T21:21:45.864Z,7.54
2019-03-01T21:24:15.834Z,7.60
2019-03-01T21:26:47.836Z,7.64
2019-03-01T21:29:18.311Z,7.64
2019-03-01T21:31:48.743Z,7.66
2019-03-01T21:34:18.849Z,7.66
2019-03-01T21:36:48.859Z,7.65
2019-03-01T21:39:20.572Z,7.63
2019-03-01T21:41:51.390Z,7.64
2019-03-01T21:44:21.647Z,7.68
2019-03-01T21:46:51.700Z,7.66
2019-03-01T21:49:21.677Z,7.66
2019-03-01T21:51:55.061Z,7.67
2019-03-01T21:54:23.734Z,7.68
2019-03-01T21:56:56.802Z,7.69
2019-03-01T21:59:26.026Z,7.72
2019-03-01T22:01:56.069Z,7.78
2019-03-01T22:04:26.070Z,7.80
2019-03-01T22:07:01.743Z,7.80
2019-03-01T22:09:27.787Z,7.80
2019-03-01T22:11:58.462Z,7.83
2019-03-01T22:14:28.897Z,7.76
2019-03-01T22:16:58.815Z,7.72
2019-03-01T22:19:30.533Z,7.74
2019-03-01T22:22:00.800Z,7.71
2019-03-01T22:24:30.761Z,7.69
2019-03-01T22:27:00.701Z,7.70
2019-03-01T22:29:30.672Z,7.72
2019-03-01T22:32:00.743Z,7.74
2019-03-01T22:34:31.030Z,7.76
2019-03-01T22:37:02.624Z,7.78
2019-03-01T22:39:32.925Z,7.80
2019-03-01T22:42:02.942Z,7.83
2019-03-01T22:44:33.344Z,7.85
2019-03-01T22:47:04.654Z,7.84
2019-03-01T22:49:34.722Z,7.85
2019-03-01T22:52:04.716Z,7.86
2019-03-01T22:54:34.742Z,7.88
2019-03-01T22:57:04.743Z,7.89
2019-03-01T22:59:34.778Z,7.88
2019-03-01T23:02:08.092Z,7.87
2019-03-01T23:04:39.646Z,7.88
2019-03-01T23:07:09.695Z,7.92
2019-03-01T23:09:42.726Z,7.97
2019-03-01T23:12:14.799Z,8.02
2019-03-01T23:14:45.828Z,8.06
2019-03-01T23:17:15.924Z,8.02
2019-03-01T23:19:47.765Z,8.01
2019-03-01T23:22:18.000Z,7.98
2019-03-01T23:24:49.408Z,7.97
2019-03-01T23:27:19.576Z,7.97
2019-03-01T23:29:50.937Z,7.94
2019-03-01T23:32:21.260Z,7.93
2019-03-01T23:34:51.072Z,7.94
2019-03-01T23:37:20.961Z,7.97
2019-03-01T23:39:51.285Z,7.99
2019-03-01T23:42:22.076Z,7.99
2019-03-01T23:44:52.095Z,8.01
2019-03-01T23:47:22.064Z,8.04
2019-03-01T23:49:52.093Z,8.04
2019-03-01T23:52:22.823Z,8.07
2019-03-01T23:54:54.259Z,8.12
2019-03-01T23:57:24.200Z,8.16
2019-03-01T23:59:54.097Z,8.19
